Time;durP1;ratioP1;P1;durP2;ratioP2;P2;SDS_P1;SDS_P2;PMS_P1;PMS_P2;Temp;Humidity;BMP_temperature;BMP_pressure;BME280_temperature;BME280_humidity;BME280_pressure;Samples;Min_cycle;Max_cycle;Signal;HPM_P1;HPM_P2
2023/03/02 00:00:41;;;;;;;2.20;1.02;;;;;;;5.02;76.53;101268.34;4979119;28;20205;-52
2023/03/02 00:03:09;;;;;;;6.25;1.65;;;;;;;5.00;76.61;101267.44;4983311;28;20092;-53
2023/03/02 00:05:37;;;;;;;3.88;1.10;;;;;;;4.98;76.67;101261.34;4983867;28;20046;-54
2023/03/02 00:08:04;;;;;;;2.63;0.60;;;;;;;4.97;76.67;101264.72;4983551;28;20309;-49
2023/03/02 00:10:30;;;;;;;5.72;1.00;;;;;;;4.99;75.97;101265.66;4977682;28;20103;-54
2023/03/02 00:12:58;;;;;;;4.57;1.30;;;;;;;4.98;76.18;101263.91;4980089;28;20054;-56
2023/03/02 00:15:25;;;;;;;3.10;0.73;;;;;;;4.96;75.96;101261.28;4985715;28;20065;-53
2023/03/02 00:17:52;;;;;;;4.07;0.75;;;;;;;4.97;76.08;101262.16;4985357;28;20101;-48
2023/03/02 00:20:18;;;;;;;2.65;0.68;;;;;;;4.95;75.97;101266.34;4984127;28;20082;-54
2023/03/02 00:22:45;;;;;;;7.07;0.93;;;;;;;4.94;76.14;101256.91;4977273;28;20057;-54
2023/03/02 00:25:13;;;;;;;1.73;1.10;;;;;;;4.96;76.83;101257.84;4975473;28;20100;-50
2023/03/02 00:27:41;;;;;;;5.60;0.95;;;;;;;4.96;75.90;101257.84;4978177;28;20141;-51
2023/03/02 00:30:09;;;;;;;1.88;1.08;;;;;;;4.97;76.20;101259.59;4976906;28;20106;-52
2023/03/02 00:32:36;;;;;;;6.00;0.90;;;;;;;4.97;76.01;101259.59;4978224;28;20117;-46
2023/03/02 00:35:03;;;;;;;1.02;0.70;;;;;;;4.96;76.64;101255.28;4978272;28;20074;-55
2023/03/02 00:37:30;;;;;;;2.03;1.00;;;;;;;4.96;76.69;101260.41;4976693;28;20074;-53
2023/03/02 00:39:57;;;;;;;2.47;0.90;;;;;;;4.97;76.05;101269.88;4987772;28;20063;-48
2023/03/02 00:42:23;;;;;;;2.50;0.85;;;;;;;4.97;75.91;101259.59;4984103;28;20552;-50
2023/03/02 00:44:52;;;;;;;4.55;0.90;;;;;;;4.97;76.13;101264.72;4984374;28;20132;-53
2023/03/02 00:47:18;;;;;;;4.05;1.42;;;;;;;4.96;76.19;101260.41;4981794;28;20141;-50
2023/03/02 00:49:48;;;;;;;2.58;0.93;;;;;;;4.98;76.77;101261.34;4978764;28;20069;-47
2023/03/02 00:52:15;;;;;;;7.25;1.30;;;;;;;4.97;76.47;101264.72;4976457;28;20137;-52
2023/03/02 00:54:42;;;;;;;4.78;1.67;;;;;;;4.96;76.19;101257.84;4982483;28;20070;-51
2023/03/02 00:57:09;;;;;;;4.03;0.98;;;;;;;4.93;76.15;101255.16;4983669;28;20081;-52
2023/03/02 00:59:37;;;;;;;1.95;0.75;;;;;;;4.95;76.83;101254.38;4980958;28;20317;-58
2023/03/02 01:02:04;;;;;;;4.50;1.38;;;;;;;4.96;76.82;101252.72;4982969;28;20077;-52
2023/03/02 01:04:38;;;;;;;2.25;0.90;;;;;;;4.96;76.83;101253.56;4979413;28;20485;-52
2023/03/02 01:07:09;;;;;;;6.35;1.42;;;;;;;4.97;76.40;101255.31;4987022;28;20042;-54
2023/03/02 01:09:37;;;;;;;3.78;1.15;;;;;;;4.95;76.93;101253.50;4987351;28;20078;-56
2023/03/02 01:12:08;;;;;;;4.65;1.92;;;;;;;4.94;76.61;101250.09;4994941;28;20062;-56
2023/03/02 01:14:36;;;;;;;2.90;1.05;;;;;;;4.95;76.58;101256.97;4984298;28;20058;-54
2023/03/02 01:17:04;;;;;;;1.48;0.93;;;;;;;4.94;76.72;101254.31;5003946;28;20073;-51
2023/03/02 01:19:30;;;;;;;7.00;1.77;;;;;;;4.94;76.45;101254.31;4986530;28;20059;-53
2023/03/02 01:21:57;;;;;;;5.15;1.63;;;;;;;4.92;77.20;101263.66;4984782;28;20053;-53
2023/03/02 01:24:24;;;;;;;3.33;1.33;;;;;;;4.92;76.49;101261.06;4985220;28;20132;-51
2023/03/02 01:26:50;;;;;;;4.57;1.83;;;;;;;4.92;76.78;101258.50;4983023;28;20061;-50
2023/03/02 01:29:17;;;;;;;4.15;1.85;;;;;;;4.92;76.63;101255.94;4986223;28;20073;-52
2023/03/02 01:31:44;;;;;;;3.13;1.10;;;;;;;4.92;76.57;101251.69;4982425;28;20066;-54
2023/03/02 01:34:10;;;;;;;5.63;1.55;;;;;;;4.93;76.41;101248.31;4980911;28;20080;-55
2023/03/02 01:36:37;;;;;;;3.78;1.58;;;;;;;4.94;77.17;101249.19;4983043;28;20077;-54
2023/03/02 01:39:04;;;;;;;7.65;1.88;;;;;;;4.94;77.03;101249.19;4981949;28;20437;-49
2023/03/02 01:41:31;;;;;;;7.43;2.28;;;;;;;4.95;77.11;101256.06;4982353;28;20525;-55
2023/03/02 01:43:57;;;;;;;6.45;2.05;;;;;;;4.97;76.48;101249.31;4983626;28;20038;-55
2023/03/02 01:46:27;;;;;;;4.97;1.92;;;;;;;4.98;76.97;101241.69;4981925;28;20141;-53
2023/03/02 01:49:00;;;;;;;3.83;1.20;;;;;;;4.97;76.60;101239.06;4981240;28;20089;-52
2023/03/02 01:51:31;;;;;;;2.35;1.45;;;;;;;4.95;76.51;101236.41;4982332;28;20078;-49
2023/03/02 01:54:04;;;;;;;4.15;1.30;;;;;;;4.95;77.08;101243.22;4985922;28;22839;-49
2023/03/02 01:56:36;;;;;;;3.97;1.10;;;;;;;4.94;76.82;101238.91;4983566;28;20160;-52
2023/03/02 01:59:09;;;;;;;4.07;1.60;;;;;;;4.94;76.75;101231.22;4983076;28;20058;-54
2023/03/02 02:01:41;;;;;;;2.30;1.10;;;;;;;4.92;77.23;101231.16;4983975;28;20122;-57
2023/03/02 02:04:08;;;;;;;3.22;0.68;;;;;;;4.91;76.46;101233.66;4981696;28;20084;-54
2023/03/02 02:07:00;;;;;;;3.75;0.82;;;;;;;4.88;76.60;101225.03;4980814;28;20133;-51
2023/03/02 02:09:29;;;;;;;2.00;1.00;;;;;;;4.87;76.45;101228.41;4979470;28;20043;-56
2023/03/02 02:11:56;;;;;;;3.42;1.08;;;;;;;4.88;76.71;101230.16;4986530;28;20799;-53
2023/03/02 02:14:23;;;;;;;2.63;1.33;;;;;;;4.87;76.66;101228.41;4985375;28;20423;-51
2023/03/02 02:16:50;;;;;;;2.78;1.30;;;;;;;4.86;76.46;101221.53;4986048;28;20097;-51
2023/03/02 02:22:10;;;;;;;1.92;0.68;;;;;;;4.82;77.12;101213.63;5060961;27;20414;-51
2023/03/02 02:24:45;;;;;;;1.85;0.68;;;;;;;4.82;76.49;101213.63;5040403;28;20044;-56
2023/03/02 02:27:13;;;;;;;1.85;0.68;;;;;;;4.80;76.77;101213.56;5036894;28;20099;-50
2023/03/02 02:29:45;;;;;;;1.75;0.93;;;;;;;4.80;77.05;101213.56;5053489;28;20088;-57
2023/03/02 02:32:15;;;;;;;1.38;0.70;;;;;;;4.80;76.69;101211.00;5057951;28;20087;-50
2023/03/02 02:37:26;;;;;;;1.42;0.65;;;;;;;4.74;76.84;101208.19;5045891;27;20405;-53
2023/03/02 02:39:53;;;;;;;3.35;1.25;;;;;;;4.76;76.58;101215.16;5035761;28;20073;-49
2023/03/02 02:42:27;;;;;;;2.15;1.02;;;;;;;4.75;77.08;101204.81;5028387;28;20140;-49
2023/03/02 02:44:57;;;;;;;1.77;0.60;;;;;;;4.75;76.63;101202.25;5018873;28;20095;-51
2023/03/02 02:47:24;;;;;;;4.03;1.38;;;;;;;4.72;76.50;101207.25;5032855;28;20077;-54
2023/03/02 02:49:54;;;;;;;2.03;0.88;;;;;;;4.70;76.34;101201.19;5027040;28;20061;-56
2023/03/02 02:52:25;;;;;;;3.45;0.85;;;;;;;4.69;76.24;101205.44;5031951;28;20085;-56
2023/03/02 02:54:55;;;;;;;2.33;1.05;;;;;;;4.69;76.76;101202.00;5033108;28;20045;-56
2023/03/02 02:57:25;;;;;;;3.28;1.30;;;;;;;4.67;76.32;101198.50;5029726;28;20050;-54
2023/03/02 02:59:54;;;;;;;;;;;;;;;4.59;76.10;101200.78;5033713;28;20077;-50
2023/03/02 03:02:24;;;;;;;1.50;0.88;;;;;;;4.59;76.16;101201.63;5030911;28;20020;-53
2023/03/02 03:04:51;;;;;;;5.05;2.08;;;;;;;4.59;75.68;101201.63;5030290;28;20072;-52
2023/03/02 03:07:21;;;;;;;2.35;1.15;;;;;;;4.58;75.21;101199.88;5035079;28;20057;-54
2023/03/02 03:09:56;;;;;;;2.40;1.15;;;;;;;4.57;75.56;101198.16;5032851;28;20111;-53
2023/03/02 03:12:25;;;;;;;1.65;1.17;;;;;;;4.55;75.46;101202.31;5029948;28;20053;-54
2023/03/02 03:14:53;;;;;;;1.92;1.27;;;;;;;4.55;74.95;101202.31;5033939;28;20076;-55
2023/03/02 03:17:19;;;;;;;1.75;1.27;;;;;;;4.52;74.97;101194.50;5033815;28;20099;-49
2023/03/02 03:19:46;;;;;;;1.98;1.17;;;;;;;4.45;74.27;101200.19;5030149;28;20077;-49
2023/03/02 03:22:14;;;;;;;2.38;1.00;;;;;;;4.46;74.46;101199.41;5029889;28;20058;-49
2023/03/02 03:24:43;;;;;;;1.80;1.02;;;;;;;4.44;73.94;101201.88;5061595;28;20041;-50
2023/03/02 03:27:13;;;;;;;3.60;1.15;;;;;;;4.40;73.74;101204.25;5030098;28;20529;-55
2023/03/02 03:29:42;;;;;;;4.65;1.08;;;;;;;4.39;74.61;101202.50;5033945;28;20052;-53
2023/03/02 03:32:08;;;;;;;1.20;0.73;;;;;;;4.37;74.23;101205.91;5030099;28;20095;-50
2023/03/02 03:34:43;;;;;;;1.85;0.98;;;;;;;4.36;73.58;101204.13;5033578;28;20061;-53
2023/03/02 03:37:14;;;;;;;1.45;1.00;;;;;;;4.34;73.68;101205.78;5030057;28;20053;-52
2023/03/02 03:39:42;;;;;;;1.95;1.17;;;;;;;4.32;73.35;101204.81;5025987;28;20154;-53
2023/03/02 03:42:10;;;;;;;1.58;0.93;;;;;;;4.31;73.29;101205.63;5015233;28;20076;-51
2023/03/02 03:44:36;;;;;;;1.67;1.05;;;;;;;4.29;73.28;101204.69;5036207;28;20069;-49
2023/03/02 03:47:03;;;;;;;2.08;1.33;;;;;;;4.28;73.57;101205.50;5024168;28;20057;-52
2023/03/02 03:49:30;;;;;;;1.75;0.88;;;;;;;4.26;73.10;101204.56;5014811;28;20080;-52
2023/03/02 03:51:56;;;;;;;2.45;0.98;;;;;;;4.24;73.08;101203.63;5017273;28;20077;-53
2023/03/02 03:54:23;;;;;;;2.70;1.33;;;;;;;4.19;72.58;101200.00;5023691;28;20123;-54
2023/03/02 03:56:50;;;;;;;2.00;1.25;;;;;;;4.15;72.48;101203.25;5016609;28;20119;-54
2023/03/02 03:59:21;;;;;;;2.05;1.10;;;;;;;4.14;72.58;101206.59;5011031;28;20081;-55
2023/03/02 04:01:51;;;;;;;1.35;1.05;;;;;;;4.13;72.67;101207.41;5019100;28;20072;-51
2023/03/02 04:04:20;;;;;;;1.52;1.00;;;;;;;4.09;72.78;101209.84;5019593;28;20077;-56
2023/03/02 04:06:48;;;;;;;1.60;1.02;;;;;;;4.07;72.46;101208.03;5024052;28;20099;-54
2023/03/02 04:09:16;;;;;;;2.90;1.10;;;;;;;4.04;72.24;101210.47;5018634;28;20049;-52
2023/03/02 04:11:44;;;;;;;6.13;0.77;;;;;;;4.03;72.29;101209.59;5011877;28;20196;-49
2023/03/02 04:14:11;;;;;;;3.85;0.93;;;;;;;4.03;71.86;101214.72;5017582;28;20069;-53
2023/03/02 04:16:38;;;;;;;1.58;1.10;;;;;;;4.01;72.05;101221.47;5022780;28;20151;-54
2023/03/02 04:19:09;;;;;;;2.03;0.93;;;;;;;3.99;72.21;101220.53;5019365;28;20071;-50
2023/03/02 04:21:37;;;;;;;2.58;1.15;;;;;;;3.98;72.51;101229.00;5020709;28;20069;-49
2023/03/02 04:24:06;;;;;;;3.72;1.05;;;;;;;3.97;72.49;101225.59;5018159;28;20081;-49
2023/03/02 04:26:33;;;;;;;1.40;0.80;;;;;;;3.96;72.38;101233.22;5018825;28;20077;-49
2023/03/02 04:29:00;;;;;;;2.97;1.45;;;;;;;3.92;71.72;101233.91;5016960;28;20065;-51
2023/03/02 04:31:27;;;;;;;2.63;1.00;;;;;;;3.91;72.82;101235.56;5018944;28;20136;-52
2023/03/02 04:33:53;;;;;;;2.28;1.05;;;;;;;3.88;71.91;101230.31;5020437;28;20072;-49
2023/03/02 04:36:20;;;;;;;1.67;0.57;;;;;;;3.83;72.40;101240.38;5011663;28;20046;-45
2023/03/02 04:38:47;;;;;;;1.70;1.13;;;;;;;3.83;72.07;101237.81;5018115;28;20046;-53
2023/03/02 04:41:14;;;;;;;3.13;1.65;;;;;;;3.83;72.08;101244.63;5019837;28;20135;-54
2023/03/02 04:43:41;;;;;;;2.47;1.42;;;;;;;3.82;72.04;101240.31;5013291;28;20096;-53
2023/03/02 04:46:13;;;;;;;2.47;1.20;;;;;;;3.81;72.14;101239.41;5013644;28;20045;-55
2023/03/02 04:48:40;;;;;;;2.22;1.38;;;;;;;3.82;71.67;101245.44;5020244;28;20045;-51
2023/03/02 04:51:15;;;;;;;4.00;1.73;;;;;;;3.81;72.07;101239.41;5016373;28;20065;-54
2023/03/02 04:53:42;;;;;;;1.92;1.08;;;;;;;3.80;71.99;101245.34;5013847;28;20081;-52
2023/03/02 04:56:09;;;;;;;3.47;1.08;;;;;;;3.78;72.42;101239.28;5015299;28;20072;-55
2023/03/02 04:58:35;;;;;;;2.03;1.52;;;;;;;3.77;72.22;101247.78;5018388;28;20095;-50
2023/03/02 05:01:02;;;;;;;3.55;1.92;;;;;;;3.76;71.95;101240.91;5019470;28;20038;-49
2023/03/02 05:03:29;;;;;;;3.83;1.40;;;;;;;3.76;71.82;101243.47;5018894;28;20103;-50
2023/03/02 05:05:56;;;;;;;3.45;1.35;;;;;;;3.76;71.54;101229.78;5016694;28;20049;-51
2023/03/02 05:08:23;;;;;;;4.60;1.38;;;;;;;3.75;72.35;101238.28;5013370;28;20053;-47
2023/03/02 05:10:49;;;;;;;4.10;1.98;;;;;;;3.72;71.56;101245.00;5022438;28;20119;-54
2023/03/02 05:13:16;;;;;;;2.58;1.10;;;;;;;3.73;71.98;101240.78;5023645;28;20108;-50
2023/03/02 05:15:43;;;;;;;5.18;1.20;;;;;;;3.73;71.65;101243.34;5015919;28;20080;-52
2023/03/02 05:18:10;;;;;;;3.55;2.17;;;;;;;3.74;71.83;101247.63;5016596;28;20510;-55
2023/03/02 05:20:38;;;;;;;2.88;1.65;;;;;;;3.74;71.47;101247.63;5014109;28;20797;-51
2023/03/02 05:23:07;;;;;;;2.95;1.00;;;;;;;3.74;71.75;101242.50;5016698;28;20089;-53
2023/03/02 05:25:35;;;;;;;4.47;1.25;;;;;;;3.74;71.84;101237.38;5013537;28;20049;-54
2023/03/02 05:28:03;;;;;;;4.75;2.08;;;;;;;3.71;71.44;101250.94;5012421;28;20185;-53
2023/03/02 05:30:31;;;;;;;5.03;2.58;;;;;;;3.71;71.41;101242.38;5015173;28;20080;-55
2023/03/02 05:32:57;;;;;;;5.38;2.40;;;;;;;3.70;71.56;101245.75;5018738;28;20111;-51
2023/03/02 05:35:24;;;;;;;6.97;2.08;;;;;;;3.70;71.63;101243.19;5019625;28;20089;-49
2023/03/02 05:37:51;;;;;;;5.57;1.65;;;;;;;3.69;71.75;101242.28;5017121;28;20038;-49
2023/03/02 05:40:19;;;;;;;5.40;2.53;;;;;;;3.69;71.29;101239.72;5013824;28;20144;-52
2023/03/02 05:42:47;;;;;;;6.80;3.25;;;;;;;3.69;71.50;101249.13;5014008;28;20069;-52
2023/03/02 05:45:22;;;;;;;12.18;2.60;;;;;;;3.67;71.48;101250.72;5023561;28;20053;-53
2023/03/02 05:47:49;;;;;;;7.40;2.70;;;;;;;3.65;71.30;101245.53;5017725;28;20121;-49
2023/03/02 05:50:16;;;;;;;7.40;2.70;;;;;;;3.66;71.28;101244.75;5012149;28;20084;-48
2023/03/02 05:52:44;;;;;;;8.13;2.58;;;;;;;3.64;71.44;101246.34;5014797;28;20341;-50
2023/03/02 05:55:12;;;;;;;5.28;3.45;;;;;;;3.63;71.06;101243.72;5021947;28;20527;-49
2023/03/02 05:57:39;;;;;;;6.10;3.03;;;;;;;3.62;71.33;101241.97;5013784;28;21855;-55
2023/03/02 06:00:09;;;;;;;5.85;2.90;;;;;;;3.62;71.75;101235.16;5013475;28;20045;-56
2023/03/02 06:02:38;;;;;;;5.13;1.77;;;;;;;3.63;71.55;101241.16;5018915;28;20049;-49
2023/03/02 06:05:07;;;;;;;5.70;2.88;;;;;;;3.64;71.33;101245.50;5014738;28;20049;-55
2023/03/02 06:07:33;;;;;;;9.43;2.85;;;;;;;3.61;71.46;101241.09;5017032;28;20080;-49
2023/03/02 06:10:00;;;;;;;6.95;3.45;;;;;;;3.59;71.56;101238.44;5009924;28;20554;-54
2023/03/02 06:12:27;;;;;;;8.82;2.58;;;;;;;3.58;71.80;101241.81;5017081;28;20077;-53
2023/03/02 06:14:53;;;;;;;5.93;2.72;;;;;;;3.57;71.33;101237.53;5013315;28;20497;-53
2023/03/02 06:17:20;;;;;;;7.03;2.28;;;;;;;3.59;71.20;101242.72;5016858;28;20137;-47
2023/03/02 06:19:47;;;;;;;8.07;3.33;;;;;;;3.58;71.59;101240.97;5019365;28;20045;-53
2023/03/02 06:22:13;;;;;;;5.70;2.28;;;;;;;3.57;71.33;101245.19;5015310;28;20069;-50
2023/03/02 06:24:40;;;;;;;6.78;3.05;;;;;;;3.57;71.22;101244.31;5012481;28;20064;-55
2023/03/02 06:27:06;;;;;;;6.20;2.63;;;;;;;3.56;70.82;101243.47;5014558;28;20132;-55
2023/03/02 06:29:33;;;;;;;5.53;2.90;;;;;;;3.55;70.99;101246.81;5017182;28;20061;-52
2023/03/02 06:32:00;;;;;;;5.35;2.63;;;;;;;3.57;70.56;101250.31;5015208;28;20532;-51
2023/03/02 06:34:28;;;;;;;6.55;3.38;;;;;;;3.56;71.38;101252.81;5016866;28;20095;-48
2023/03/02 06:36:54;;;;;;;5.43;2.30;;;;;;;3.58;71.24;101252.06;5019578;28;20494;-54
2023/03/02 06:39:21;;;;;;;6.63;3.05;;;;;;;3.58;71.34;101257.19;5016255;28;20050;-47
2023/03/02 06:41:48;;;;;;;8.60;2.70;;;;;;;3.58;71.21;101252.06;5013385;28;20129;-46
2023/03/02 06:44:16;;;;;;;8.70;2.88;;;;;;;3.59;70.99;101242.72;5016524;28;20135;-52
2023/03/02 06:46:43;;;;;;;5.22;2.03;;;;;;;3.59;71.53;101253.81;5011313;28;20038;-48
2023/03/02 06:49:11;;;;;;;6.50;3.03;;;;;;;3.59;71.59;101251.25;5016256;28;20085;-57
2023/03/02 06:51:39;;;;;;;10.13;2.92;;;;;;;3.57;70.84;101247.75;5015349;28;20050;-53
2023/03/02 06:54:07;;;;;;;4.93;2.50;;;;;;;3.58;71.17;101252.06;5013572;28;20137;-54
2023/03/02 06:56:34;;;;;;;6.97;2.55;;;;;;;3.58;71.04;101254.63;5012712;28;20049;-52
2023/03/02 06:59:01;;;;;;;4.25;1.98;;;;;;;3.59;71.34;101250.41;5011324;28;20495;-54
2023/03/02 07:01:31;;;;;;;7.47;2.78;;;;;;;3.60;70.99;101249.59;5012044;28;20041;-54
2023/03/02 07:03:58;;;;;;;6.85;2.90;;;;;;;3.59;71.40;101258.09;5011663;28;20050;-50
2023/03/02 07:06:25;;;;;;;4.18;2.83;;;;;;;3.60;71.20;101247.91;5008707;28;20072;-53
2023/03/02 07:08:51;;;;;;;8.90;2.72;;;;;;;3.62;70.94;101252.22;5013015;28;20137;-51
2023/03/02 07:11:18;;;;;;;6.63;3.10;;;;;;;3.63;71.21;101254.84;5014429;28;20077;-51
2023/03/02 07:13:45;;;;;;;5.72;2.15;;;;;;;3.63;70.97;101248.84;5008067;28;20081;-53
2023/03/02 07:16:14;;;;;;;6.93;3.15;;;;;;;3.66;71.39;101254.09;5007369;28;20054;-51
2023/03/02 07:18:40;;;;;;;5.45;2.25;;;;;;;3.66;71.11;101255.00;5010087;28;20129;-53
2023/03/02 07:21:07;;;;;;;4.65;2.65;;;;;;;3.66;71.39;101255.00;5014375;28;20575;-57
2023/03/02 07:23:34;;;;;;;6.82;2.45;;;;;;;3.66;70.73;101256.66;5014729;28;20083;-52
2023/03/02 07:26:00;;;;;;;6.78;2.25;;;;;;;3.66;71.30;101249.88;5017351;28;20037;-49
2023/03/02 07:28:27;;;;;;;6.45;2.75;;;;;;;3.66;70.92;101259.22;5016787;28;20089;-53
2023/03/02 07:30:54;;;;;;;7.53;2.13;;;;;;;3.69;71.00;101254.25;5016572;28;20103;-53
2023/03/02 07:33:21;;;;;;;11.23;2.95;;;;;;;3.71;70.75;101253.50;5026675;28;20084;-49
2023/03/02 07:35:48;;;;;;;6.70;3.05;;;;;;;3.72;70.32;101256.97;5021865;28;20038;-55
2023/03/02 07:38:14;;;;;;;10.60;3.47;;;;;;;3.73;70.58;101256.16;5020310;28;20068;-54
2023/03/02 07:40:42;;;;;;;5.72;2.72;;;;;;;3.76;70.87;101256.28;5011984;28;20535;-48
2023/03/02 07:43:09;;;;;;;7.60;3.60;;;;;;;3.79;71.27;101251.31;5011823;28;20595;-49
2023/03/02 07:45:37;;;;;;;8.65;3.05;;;;;;;3.81;70.70;101254.78;5012414;28;20050;-47
2023/03/02 07:48:04;;;;;;;7.68;3.50;;;;;;;3.85;71.02;101250.69;5012224;28;20518;-56
2023/03/02 07:50:31;;;;;;;7.00;3.88;;;;;;;3.86;70.76;101253.31;5013933;28;20120;-53
2023/03/02 07:52:58;;;;;;;6.20;3.33;;;;;;;3.89;70.35;101256.81;5014339;28;20501;-57
2023/03/02 07:55:25;;;;;;;6.85;2.83;;;;;;;3.94;70.38;101257.91;5015422;28;20064;-50
2023/03/02 07:57:52;;;;;;;8.52;3.45;;;;;;;3.98;70.91;101254.66;5011839;28;20081;-47
2023/03/02 08:00:19;;;;;;;8.30;3.30;;;;;;;4.03;70.16;101253.19;5010295;28;20073;-53
2023/03/02 08:02:46;;;;;;;7.43;2.90;;;;;;;4.09;70.66;101250.88;5009089;28;20567;-51
2023/03/02 08:05:13;;;;;;;7.57;2.75;;;;;;;4.15;70.70;101254.53;5019530;28;20045;-52
2023/03/02 08:07:39;;;;;;;8.70;2.95;;;;;;;4.20;70.73;101245.34;5014416;28;20046;-54
2023/03/02 08:10:06;;;;;;;7.13;3.70;;;;;;;4.24;70.77;101247.22;5014503;28;20730;-50
2023/03/02 08:12:35;;;;;;;7.53;3.33;;;;;;;4.29;70.67;101255.13;5016979;28;20038;-53
2023/03/02 08:15:02;;;;;;;7.93;2.83;;;;;;;4.30;70.88;101257.75;5017630;28;20130;-53
2023/03/02 08:17:31;;;;;;;9.05;3.30;;;;;;;4.32;70.62;101260.38;5015662;28;20488;-51
2023/03/02 08:19:58;;;;;;;9.57;3.28;;;;;;;4.34;70.31;101262.19;5008954;28;20296;-54
2023/03/02 08:22:25;;;;;;;7.57;3.28;;;;;;;4.40;70.01;101260.69;5018505;28;20139;-52
2023/03/02 08:24:52;;;;;;;8.68;3.63;;;;;;;4.42;70.23;101259.09;5012200;28;20076;-53
2023/03/02 08:27:19;;;;;;;10.55;3.78;;;;;;;4.45;70.37;101264.31;5017768;28;20492;-51
2023/03/02 08:29:46;;;;;;;6.75;3.08;;;;;;;4.47;69.70;101270.41;5011149;28;20073;-50
2023/03/02 08:32:13;;;;;;;9.13;4.85;;;;;;;4.53;70.20;101270.69;5021681;28;20328;-48
2023/03/02 08:34:39;;;;;;;8.93;3.50;;;;;;;4.52;70.10;101261.19;5016043;28;20144;-52
2023/03/02 08:37:06;;;;;;;8.68;3.70;;;;;;;4.55;69.51;101266.47;5015383;28;20045;-56
2023/03/02 08:39:33;;;;;;;8.65;4.78;;;;;;;4.55;69.08;101271.59;5017761;28;20139;-49
2023/03/02 08:41:59;;;;;;;9.45;3.40;;;;;;;4.58;68.96;101271.75;5019339;28;20045;-48
2023/03/02 08:44:26;;;;;;;10.35;4.50;;;;;;;4.62;69.75;101275.28;5022515;28;20080;-52
2023/03/02 08:46:53;;;;;;;9.35;3.50;;;;;;;4.62;69.49;101281.31;5022035;28;20069;-49
2023/03/02 08:49:20;;;;;;;9.82;4.57;;;;;;;4.66;69.28;101269.47;5021540;28;20072;-48
2023/03/02 08:51:52;;;;;;;9.20;4.20;;;;;;;4.68;69.44;101277.25;5015434;28;20080;-48
2023/03/02 08:54:19;;;;;;;11.20;4.38;;;;;;;4.71;69.65;101280.81;5024249;28;20049;-50
2023/03/02 08:56:47;;;;;;;9.85;4.25;;;;;;;4.74;69.13;101282.63;5016938;28;20505;-52
2023/03/02 08:59:14;;;;;;;7.65;3.47;;;;;;;4.76;69.23;101281.00;5012944;28;20065;-52
2023/03/02 09:01:41;;;;;;;10.07;4.40;;;;;;;4.78;69.09;101270.78;5009786;28;20084;-51
2023/03/02 09:04:09;;;;;;;8.52;4.18;;;;;;;4.83;68.44;101277.88;5009324;28;20072;-52
2023/03/02 09:06:39;;;;;;;9.73;5.00;;;;;;;4.88;69.06;101281.53;5019688;28;20564;-55
2023/03/02 09:09:07;;;;;;;12.90;3.78;;;;;;;4.91;68.99;101279.88;5017618;28;20073;-55
2023/03/02 09:11:34;;;;;;;11.52;4.32;;;;;;;4.94;68.79;101269.72;5013988;28;20095;-53
2023/03/02 09:14:02;;;;;;;8.35;3.75;;;;;;;5.03;68.75;101280.34;5014232;28;20137;-49
2023/03/02 09:16:29;;;;;;;8.50;3.92;;;;;;;5.17;69.31;101272.34;5018235;28;20049;-54
2023/03/02 09:18:55;;;;;;;8.52;3.35;;;;;;;5.30;69.48;101269.41;5012961;28;20436;-51
2023/03/02 09:21:23;;;;;;;8.18;4.40;;;;;;;5.45;68.76;101270.84;5016822;28;20581;-57
2023/03/02 09:23:54;;;;;;;11.25;4.15;;;;;;;5.60;68.76;101273.09;5016474;28;20321;-52
2023/03/02 09:26:21;;;;;;;8.18;3.60;;;;;;;5.69;68.68;101268.31;5020454;28;20076;-53
2023/03/02 09:28:48;;;;;;;7.72;4.18;;;;;;;5.72;67.35;101263.28;5013669;28;20050;-52
2023/03/02 09:31:14;;;;;;;9.23;4.40;;;;;;;5.81;67.22;101272.16;5025826;28;20045;-50
2023/03/02 09:33:41;;;;;;;12.75;4.53;;;;;;;5.90;67.97;101273.38;5018609;28;20060;-51
2023/03/02 09:36:10;;;;;;;9.85;4.38;;;;;;;5.97;67.42;101268.44;5018041;28;20058;-52
2023/03/02 09:38:37;;;;;;;13.10;4.60;;;;;;;6.10;67.38;101268.09;5018996;28;20041;-57
2023/03/02 09:46:55;;;;;;;10.18;6.45;;;;;;;7.11;65.82;101269.66;5034859;27;20422;-50
2023/03/02 09:52:28;;;;;;;6.18;3.28;;;;;;;7.01;64.26;101271.06;5017431;27;20773;-56
2023/03/02 09:54:59;;;;;;;8.95;4.45;;;;;;;6.94;64.85;101276.03;4997101;28;20112;-55
2023/03/02 09:57:31;;;;;;;9.55;4.60;;;;;;;6.91;64.83;101282.78;4992135;28;20061;-54
2023/03/02 10:00:09;;;;;;;8.68;4.25;;;;;;;6.82;64.68;101279.09;4997295;28;20053;-55
2023/03/02 10:02:51;;;;;;;7.22;3.83;;;;;;;6.76;62.54;101284.03;4995257;28;20131;-51
2023/03/02 10:05:23;;;;;;;9.57;4.75;;;;;;;6.75;62.63;101291.72;4999458;28;20100;-51
2023/03/02 10:07:50;;;;;;;5.40;2.85;;;;;;;6.63;62.56;101282.75;4995581;28;20108;-54
2023/03/02 10:13:24;;;;;;;8.35;5.57;;;;;;;6.75;64.07;101286.56;5010587;28;20408;-54
2023/03/02 10:16:06;;;;;;;9.88;5.45;;;;;;;6.80;63.61;101280.72;4983976;28;20670;-55
2023/03/02 10:18:43;;;;;;;12.88;5.95;;;;;;;6.82;63.76;101291.97;4995904;28;20054;-54
2023/03/02 10:21:12;;;;;;;;;;;;;;;6.73;63.09;101288.22;4998134;28;20049;-53
2023/03/02 10:24:02;;;;;;;8.80;5.18;;;;;;;6.71;63.04;101285.56;4998488;28;19976;-55
2023/03/02 10:31:51;;;;;;;7.95;4.00;;;;;;;6.71;63.47;101289.84;5003763;28;20404;-52
2023/03/02 10:34:25;;;;;;;7.82;3.78;;;;;;;6.72;63.72;101294.19;4996569;28;20050;-53
2023/03/02 10:36:52;;;;;;;6.68;3.92;;;;;;;6.76;62.53;101283.16;4999960;28;20074;-48
2023/03/02 10:39:19;;;;;;;6.35;3.00;;;;;;;6.79;62.97;101285.84;4999889;28;20065;-54
2023/03/02 10:41:52;;;;;;;7.32;3.83;;;;;;;6.86;62.64;101285.19;4995731;28;20931;-53
2023/03/02 10:44:26;;;;;;;11.18;4.75;;;;;;;7.42;63.58;101297.25;4993045;28;20065;-53
2023/03/02 10:46:52;;;;;;;5.25;2.42;;;;;;;8.18;62.31;101290.78;4995211;28;20116;-52
2023/03/02 10:52:02;;;;;;;7.53;3.58;;;;;;;8.13;60.01;101294.97;5035743;27;20417;-52
2023/03/02 10:54:30;;;;;;;4.93;2.72;;;;;;;7.96;59.52;101305.69;4995525;28;20077;-51
2023/03/02 10:57:00;;;;;;;8.10;3.33;;;;;;;7.83;60.16;101303.56;4994479;28;20057;-58
2023/03/02 11:02:22;;;;;;;5.88;3.15;;;;;;;7.72;60.46;101299.00;5039052;28;20408;-49
2023/03/02 11:05:09;;;;;;;7.53;3.67;;;;;;;7.90;61.01;101297.78;5033087;28;20106;-53
2023/03/02 11:07:36;;;;;;;5.35;4.70;;;;;;;8.02;60.57;101302.41;5043348;28;20551;-53
2023/03/02 11:10:17;;;;;;;5.15;3.05;;;;;;;8.03;59.99;101300.69;5040659;28;20037;-55
2023/03/02 11:12:47;;;;;;;6.07;2.60;;;;;;;8.01;59.71;101307.53;5035096;28;20057;-54
2023/03/02 11:18:16;;;;;;;6.95;4.13;;;;;;;8.00;59.00;101304.06;5072132;27;20402;-58
2023/03/02 11:20:48;;;;;;;7.47;3.95;;;;;;;8.10;60.42;101292.28;5021526;28;20512;-54
2023/03/02 11:25:56;;;;;;;4.72;4.10;;;;;;;8.31;59.83;101293.72;5044214;27;20417;-55
2023/03/02 11:31:31;;;;;;;7.70;2.67;;;;;;;8.33;60.12;101290.34;5039613;27;20962;-56
2023/03/02 11:34:06;;;;;;;3.80;2.08;;;;;;;8.31;59.28;101297.16;4997311;28;20070;-50
2023/03/02 11:36:56;;;;;;;4.93;2.50;;;;;;;8.21;58.91;101290.88;5036533;28;20053;-55
2023/03/02 11:39:35;;;;;;;5.72;2.55;;;;;;;8.23;59.90;101294.38;5006286;28;20091;-55
2023/03/02 11:42:19;;;;;;;6.45;2.95;;;;;;;8.25;60.15;101290.97;5024303;28;20497;-53
2023/03/02 11:44:47;;;;;;;4.35;2.90;;;;;;;8.23;59.83;101294.38;5031838;28;21288;-51
2023/03/02 11:47:16;;;;;;;9.38;2.88;;;;;;;8.21;59.43;101290.88;5014287;28;20045;-56
2023/03/02 11:49:51;;;;;;;5.35;2.50;;;;;;;8.25;59.58;101288.38;5018962;28;20049;-51
2023/03/02 11:52:21;;;;;;;4.85;2.80;;;;;;;8.23;59.60;101288.34;5016660;28;20104;-57
2023/03/02 12:00:32;;;;;;;3.63;2.08;;;;;;;8.21;58.97;101290.88;5029788;28;20403;-58
2023/03/02 12:05:38;;;;;;;5.97;3.28;;;;;;;8.55;58.53;101279.75;5099851;27;20420;-54
2023/03/02 12:08:27;;;;;;;3.70;3.13;;;;;;;8.32;58.74;101293.78;5064682;28;20067;-51
2023/03/02 12:13:38;;;;;;;6.00;2.83;;;;;;;8.20;59.23;101283.97;5029340;28;20402;-58
2023/03/02 12:16:40;;;;;;;4.72;2.47;;;;;;;8.09;58.50;101285.38;5018756;28;20046;-55
2023/03/02 12:22:01;;;;;;;5.45;2.67;;;;;;;7.97;58.81;101285.91;5037116;27;20898;-56
2023/03/02 12:24:31;;;;;;;5.72;2.20;;;;;;;7.97;59.10;101280.75;5021399;28;20049;-49
2023/03/02 12:27:05;;;;;;;3.15;1.73;;;;;;;8.01;59.92;101274.00;5037253;28;20082;-51
2023/03/02 12:29:42;;;;;;;6.75;2.28;;;;;;;8.01;59.67;101268.81;5036395;28;20548;-56
2023/03/02 12:32:19;;;;;;;4.53;2.58;;;;;;;8.14;59.59;101264.88;5032931;28;20049;-51